createdAt,value
2019-06-15T00:00:02.361Z,6.00
2019-06-15T00:02:30.780Z,6.03
2019-06-15T00:04:59.234Z,5.63
2019-06-15T00:07:27.650Z,6.60
2019-06-15T00:09:56.371Z,6.20
2019-06-15T00:12:24.803Z,6.20
2019-06-15T00:14:53.325Z,6.40
2019-06-15T00:17:21.833Z,6.40
2019-06-15T00:19:50.293Z,6.27
2019-06-15T00:22:18.722Z,6.90
2019-06-15T00:24:47.176Z,6.30
2019-06-15T00:27:15.663Z,6.30
2019-06-15T00:29:44.149Z,6.60
2019-06-15T00:32:12.568Z,6.80
2019-06-15T00:34:41.026Z,6.70
2019-06-15T00:37:09.448Z,7.00
2019-06-15T00:39:37.905Z,6.77
2019-06-15T00:42:06.340Z,7.20
2019-06-15T00:44:34.866Z,6.90
2019-06-15T00:47:03.542Z,7.80
2019-06-15T00:49:32.021Z,8.17
2019-06-15T00:52:00.560Z,7.43
2019-06-15T00:54:29.084Z,8.67
2019-06-15T00:56:57.501Z,8.90
2019-06-15T00:59:25.962Z,8.27
2019-06-15T01:01:54.466Z,8.57
2019-06-15T01:04:22.891Z,8.57
2019-06-15T01:06:51.341Z,9.33
2019-06-15T01:09:19.774Z,9.47
2019-06-15T01:11:48.236Z,9.90
2019-06-15T01:14:16.659Z,9.67
2019-06-15T01:16:45.116Z,9.50
2019-06-15T01:19:13.613Z,9.87
2019-06-15T01:21:42.083Z,10.33
2019-06-15T01:24:10.498Z,9.73
2019-06-15T01:26:38.954Z,9.93
2019-06-15T01:29:07.376Z,9.60
2019-06-15T01:31:35.829Z,9.93
2019-06-15T01:34:04.403Z,10.10
2019-06-15T01:36:32.930Z,9.83
2019-06-15T01:39:01.422Z,9.77
2019-06-15T01:41:29.926Z,9.90
2019-06-15T01:43:58.449Z,10.47
2019-06-15T01:46:26.905Z,10.50
2019-06-15T01:48:55.401Z,11.13
2019-06-15T01:51:23.860Z,10.40
2019-06-15T01:53:52.291Z,10.93
2019-06-15T01:56:20.819Z,9.40
2019-06-15T01:58:49.245Z,11.10
2019-06-15T02:01:17.780Z,10.70
2019-06-15T02:03:46.206Z,11.27
2019-06-15T02:06:14.664Z,10.70
2019-06-15T02:08:43.169Z,10.80
2019-06-15T02:11:11.700Z,11.13
2019-06-15T02:13:40.137Z,10.60
2019-06-15T02:16:08.663Z,11.20
2019-06-15T02:18:37.208Z,10.90
2019-06-15T02:21:05.716Z,11.60
2019-06-15T02:23:34.178Z,11.20
2019-06-15T02:26:02.608Z,11.80
2019-06-15T02:28:31.061Z,11.50
2019-06-15T02:30:59.517Z,11.10
2019-06-15T02:33:27.964Z,11.30
2019-06-15T02:35:56.407Z,11.13
2019-06-15T02:38:24.861Z,11.37
2019-06-15T02:40:53.292Z,11.43
2019-06-15T02:43:21.750Z,11.67
2019-06-15T02:45:50.181Z,11.13
2019-06-15T02:48:18.640Z,11.23
2019-06-15T02:50:47.134Z,10.70
2019-06-15T02:53:15.661Z,12.80
2019-06-15T02:55:50.691Z,11.20
2019-06-15T02:58:14.340Z,11.70
2019-06-15T03:00:48.949Z,11.67
2019-06-15T03:03:17.470Z,11.60
2019-06-15T03:05:46.443Z,11.47
2019-06-15T03:08:14.980Z,12.20
2019-06-15T03:10:43.405Z,11.90
2019-06-15T03:13:13.019Z,11.90
2019-06-15T03:15:41.469Z,12.00
2019-06-15T03:18:09.979Z,12.27
2019-06-15T03:20:38.428Z,12.60
2019-06-15T03:23:06.861Z,11.13
2019-06-15T03:25:35.334Z,12.27
2019-06-15T03:28:03.844Z,13.07
2019-06-15T03:30:32.302Z,12.20
2019-06-15T03:33:00.732Z,12.70
2019-06-15T03:35:29.282Z,12.23
2019-06-15T03:37:57.780Z,12.60
2019-06-15T03:40:26.279Z,11.77
2019-06-15T03:42:54.756Z,11.97
2019-06-15T03:45:23.283Z,12.60
2019-06-15T03:47:51.714Z,13.27
2019-06-15T03:50:20.436Z,12.80
2019-06-15T03:52:48.871Z,12.67
2019-06-15T03:55:17.396Z,12.50
2019-06-15T03:57:45.893Z,13.47
2019-06-15T04:00:45.124Z,13.20
2019-06-15T04:03:13.667Z,11.87
2019-06-15T04:05:43.161Z,12.53
2019-06-15T04:08:11.737Z,13.00
2019-06-15T04:10:40.261Z,12.63
2019-06-15T04:13:08.764Z,12.60
2019-06-15T04:15:37.223Z,13.37
2019-06-15T04:18:05.730Z,13.70
2019-06-15T04:20:34.279Z,13.30
2019-06-15T04:23:02.713Z,12.80
2019-06-15T04:25:31.148Z,14.23
2019-06-15T04:27:59.610Z,14.10
2019-06-15T04:30:28.357Z,15.40
2019-06-15T04:32:56.828Z,13.97
2019-06-15T04:35:25.270Z,15.07
2019-06-15T04:37:53.749Z,14.70
2019-06-15T04:40:22.180Z,14.27
2019-06-15T04:42:50.643Z,15.07
2019-06-15T04:45:19.153Z,15.27
2019-06-15T04:47:47.619Z,15.80
2019-06-15T04:50:16.119Z,16.47
2019-06-15T04:52:44.573Z,16.30
2019-06-15T04:55:13.169Z,16.43
2019-06-15T04:57:41.636Z,16.30
2019-06-15T05:00:11.378Z,17.20
2019-06-15T05:02:40.472Z,17.37
2019-06-15T05:05:09.536Z,16.33
2019-06-15T05:07:37.994Z,18.00
2019-06-15T05:10:06.965Z,17.53
2019-06-15T05:12:35.696Z,15.93
2019-06-15T05:15:05.634Z,17.53
2019-06-15T05:17:34.160Z,17.57
2019-06-15T05:20:02.588Z,17.30
2019-06-15T05:22:31.051Z,17.33
2019-06-15T05:24:59.489Z,16.77
2019-06-15T05:27:27.940Z,18.03
2019-06-15T05:29:56.687Z,17.43
2019-06-15T05:32:25.502Z,17.73
2019-06-15T05:34:55.570Z,18.70
2019-06-15T05:37:24.005Z,18.13
2019-06-15T05:39:52.471Z,15.70
2019-06-15T05:42:25.021Z,19.73
2019-06-15T05:44:55.090Z,18.63
2019-06-15T05:47:23.518Z,15.03
2019-06-15T05:49:51.976Z,16.40
2019-06-15T05:52:20.410Z,17.20
2019-06-15T05:54:48.950Z,18.90
2019-06-15T05:57:21.497Z,18.40
2019-06-15T05:59:47.640Z,18.87
2019-06-15T06:02:16.072Z,23.10
2019-06-15T06:04:44.536Z,22.67
2019-06-15T06:07:12.965Z,23.40
2019-06-15T06:09:42.968Z,25.50
2019-06-15T06:12:14.550Z,26.50
2019-06-15T06:14:43.064Z,25.10
2019-06-15T06:17:11.499Z,26.57
2019-06-15T06:19:39.954Z,28.10
2019-06-15T06:22:08.654Z,26.83
2019-06-15T06:24:37.098Z,28.10
2019-06-15T06:27:05.557Z,28.43
2019-06-15T06:29:34.025Z,28.60
2019-06-15T06:32:02.445Z,25.87
2019-06-15T06:34:30.901Z,24.60
2019-06-15T06:36:59.339Z,18.87
2019-06-15T06:39:27.870Z,19.90
2019-06-15T06:41:56.332Z,14.57
2019-06-15T06:44:24.825Z,15.60
2019-06-15T06:46:53.325Z,15.57
2019-06-15T06:49:21.764Z,14.40
2019-06-15T06:51:50.230Z,15.33
2019-06-15T06:54:18.666Z,15.23
2019-06-15T06:56:47.127Z,15.77
2019-06-15T06:59:15.559Z,16.90
2019-06-15T07:01:44.025Z,16.67
2019-06-15T07:04:12.472Z,16.03
2019-06-15T07:06:40.948Z,16.20
2019-06-15T07:09:09.442Z,15.87
2019-06-15T07:11:37.899Z,16.33
2019-06-15T07:14:06.333Z,16.00
2019-06-15T07:16:34.805Z,17.13
2019-06-15T07:19:03.233Z,18.00
2019-06-15T07:21:31.699Z,19.83
2019-06-15T07:24:00.137Z,20.47
2019-06-15T07:26:29.046Z,17.57
